Time;durP1;ratioP1;P1;durP2;ratioP2;P2;SDS_P1;SDS_P2;PMS_P1;PMS_P2;Temp;Humidity;BMP_temperature;BMP_pressure;BME280_temperature;BME280_humidity;BME280_pressure;Samples;Min_cycle;Max_cycle;Signal;HPM_P1;HPM_P2
2023/04/16 00:01:02;;;;;;;;;;;8.80;90.80;;;;;;5050014;28;19919;-85
2023/04/16 00:03:27;;;;;;;;;;;8.80;90.70;;;;;;5046202;28;19916;-86
2023/04/16 00:05:54;;;;;;;;;;;8.80;90.60;;;;;;5053158;28;19911;-86
2023/04/16 00:08:20;;;;;;;;;;;8.70;90.60;;;;;;5059826;28;19940;-85
2023/04/16 00:10:46;;;;;;;;;;;8.70;90.80;;;;;;5045287;28;19964;-86
2023/04/16 00:13:11;;;;;;;;;;;8.70;91.00;;;;;;5044457;28;19948;-86
2023/04/16 00:15:36;;;;;;;;;;;8.70;91.00;;;;;;5045539;28;19963;-87
2023/04/16 00:18:02;;;;;;;;;;;8.60;90.90;;;;;;5049510;28;19921;-86
2023/04/16 00:20:27;;;;;;;;;;;8.60;90.60;;;;;;5043098;28;20286;-86
2023/04/16 00:22:53;;;;;;;;;;;8.70;90.60;;;;;;5036337;28;19917;-86
2023/04/16 00:25:18;;;;;;;;;;;8.70;90.60;;;;;;5031897;28;20016;-86
2023/04/16 00:27:43;;;;;;;;;;;8.70;90.50;;;;;;5033350;28;19952;-86
2023/04/16 00:30:09;;;;;;;;;;;8.80;90.40;;;;;;5049084;28;19913;-86
2023/04/16 00:32:34;;;;;;;;;;;8.60;90.20;;;;;;5033458;28;19921;-86
2023/04/16 00:35:00;;;;;;;;;;;8.60;90.70;;;;;;5050196;28;19936;-86
2023/04/16 00:37:25;;;;;;;;;;;8.60;90.90;;;;;;5032322;28;19964;-86
2023/04/16 00:39:51;;;;;;;;;;;8.70;90.70;;;;;;5031516;28;19932;-86
2023/04/16 00:42:16;;;;;;;;;;;8.70;90.70;;;;;;5032379;28;19913;-86
2023/04/16 00:44:42;;;;;;;;;;;8.70;90.60;;;;;;5037316;28;20297;-86
2023/04/16 00:47:07;;;;;;;;;;;8.70;90.70;;;;;;5048989;28;19959;-86
2023/04/16 00:49:33;;;;;;;;;;;8.80;90.80;;;;;;5042237;28;20023;-86
2023/04/16 00:52:01;;;;;;;;;;;8.80;90.40;;;;;;5050925;28;19909;-86
2023/04/16 00:54:27;;;;;;;;;;;8.80;90.50;;;;;;5050803;28;19971;-86
2023/04/16 00:56:52;;;;;;;;;;;8.80;90.40;;;;;;5051162;28;19909;-86
2023/04/16 00:59:18;;;;;;;;;;;8.80;90.00;;;;;;5050244;28;19995;-86
2023/04/16 01:01:43;;;;;;;;;;;8.80;90.40;;;;;;5037028;28;19924;-85
2023/04/16 01:04:09;;;;;;;;;;;8.70;90.60;;;;;;5037538;28;19920;-86
2023/04/16 01:06:35;;;;;;;;;;;8.80;90.50;;;;;;5044548;28;19913;-86
2023/04/16 01:09:00;;;;;;;;;;;8.70;90.30;;;;;;5050684;28;20366;-86
2023/04/16 01:11:26;;;;;;;;;;;8.70;90.20;;;;;;5051150;28;20317;-86
2023/04/16 01:13:51;;;;;;;;;;;8.60;90.50;;;;;;5050287;28;19909;-85
2023/04/16 01:16:17;;;;;;;;;;;8.60;90.50;;;;;;5058128;28;19971;-85
2023/04/16 01:18:42;;;;;;;;;;;8.50;91.00;;;;;;5049732;28;19940;-86
2023/04/16 01:21:08;;;;;;;;;;;8.50;91.20;;;;;;5059618;28;19996;-85
2023/04/16 01:23:33;;;;;;;;;;;8.60;90.90;;;;;;5057067;28;19951;-85
2023/04/16 01:25:59;;;;;;;;;;;8.60;91.10;;;;;;5052656;28;19931;-86
2023/04/16 01:28:24;;;;;;;;;;;8.60;90.70;;;;;;5049868;28;20048;-85
2023/04/16 01:30:50;;;;;;;;;;;8.60;91.00;;;;;;5043680;28;19909;-85
2023/04/16 01:33:17;;;;;;;;;;;8.60;91.00;;;;;;5050334;28;19944;-86
2023/04/16 01:35:42;;;;;;;;;;;8.60;91.00;;;;;;5042449;28;19909;-86
2023/04/16 01:38:08;;;;;;;;;;;8.70;91.00;;;;;;5052754;28;20285;-86
2023/04/16 01:40:34;;;;;;;;;;;8.60;90.80;;;;;;5051802;28;19913;-86
2023/04/16 01:43:00;;;;;;;;;;;8.60;91.00;;;;;;5049737;28;20396;-86
2023/04/16 01:45:25;;;;;;;;;;;8.50;90.80;;;;;;5045687;28;20047;-86
2023/04/16 01:47:51;;;;;;;;;;;8.50;91.30;;;;;;5030493;28;19916;-86
2023/04/16 01:50:16;;;;;;;;;;;8.60;91.10;;;;;;5042093;28;20416;-85
2023/04/16 01:52:42;;;;;;;;;;;8.60;90.80;;;;;;5049778;28;20298;-85
2023/04/16 01:55:08;;;;;;;;;;;8.60;91.10;;;;;;5050581;28;19916;-85
2023/04/16 01:57:33;;;;;;;;;;;8.80;91.00;;;;;;5050829;28;19970;-85
2023/04/16 01:59:59;;;;;;;;;;;8.60;90.70;;;;;;5040855;28;19916;-85
2023/04/16 02:02:27;;;;;;;;;;;8.60;91.00;;;;;;5046594;28;19913;-86
2023/04/16 02:04:53;;;;;;;;;;;8.60;91.00;;;;;;5033309;28;19920;-85
2023/04/16 02:07:19;;;;;;;;;;;8.60;91.20;;;;;;5041969;28;19913;-86
2023/04/16 02:09:44;;;;;;;;;;;8.60;91.00;;;;;;5050379;28;19909;-86
2023/04/16 02:12:10;;;;;;;;;;;8.70;91.00;;;;;;5049610;28;20301;-86
2023/04/16 02:14:36;;;;;;;;;;;8.70;91.00;;;;;;5035916;28;19914;-86
2023/04/16 02:17:01;;;;;;;;;;;8.70;90.70;;;;;;5032880;28;19916;-86
2023/04/16 02:19:27;;;;;;;;;;;8.80;90.70;;;;;;5033844;28;19990;-86
2023/04/16 02:21:53;;;;;;;;;;;8.80;90.40;;;;;;5040911;28;19913;-85
2023/04/16 02:24:18;;;;;;;;;;;8.80;90.40;;;;;;5044279;28;19999;-86
2023/04/16 02:26:44;;;;;;;;;;;8.80;90.30;;;;;;5054143;28;19908;-86
2023/04/16 02:29:09;;;;;;;;;;;8.70;90.10;;;;;;5035064;28;19959;-86
2023/04/16 02:31:35;;;;;;;;;;;8.70;90.40;;;;;;5034187;28;19959;-86
2023/04/16 02:34:00;;;;;;;;;;;8.60;90.60;;;;;;5033699;28;19964;-85
2023/04/16 02:36:26;;;;;;;;;;;8.70;90.40;;;;;;5034906;28;20429;-85
2023/04/16 02:38:51;;;;;;;;;;;8.60;90.50;;;;;;5048685;28;19924;-85
2023/04/16 02:41:17;;;;;;;;;;;8.60;90.50;;;;;;5055351;28;19909;-85
2023/04/16 02:43:43;;;;;;;;;;;8.60;90.30;;;;;;5045318;28;19913;-86
2023/04/16 02:46:08;;;;;;;;;;;8.70;90.30;;;;;;5036226;28;19917;-86
2023/04/16 02:48:34;;;;;;;;;;;8.70;90.60;;;;;;5035488;28;19913;-86
2023/04/16 02:50:59;;;;;;;;;;;8.80;90.40;;;;;;5034784;28;19910;-85
2023/04/16 02:53:25;;;;;;;;;;;8.80;90.20;;;;;;5062760;22;19928;-83
2023/04/16 02:55:53;;;;;;;;;;;8.80;90.20;;;;;;5051725;28;19917;-83
2023/04/16 02:58:20;;;;;;;;;;;8.80;90.20;;;;;;5055443;28;19919;-84
2023/04/16 03:00:45;;;;;;;;;;;8.80;90.60;;;;;;5037938;28;19909;-86
2023/04/16 03:03:11;;;;;;;;;;;8.80;90.40;;;;;;5035394;28;19924;-84
2023/04/16 03:05:36;;;;;;;;;;;8.90;90.00;;;;;;5033505;28;19939;-83
2023/04/16 03:08:02;;;;;;;;;;;8.90;90.00;;;;;;5037319;28;20004;-85
2023/04/16 03:10:28;;;;;;;;;;;8.90;89.90;;;;;;5032421;28;19913;-84
2023/04/16 03:12:53;;;;;;;;;;;8.80;90.30;;;;;;5034122;28;19913;-82
2023/04/16 03:15:19;;;;;;;;;;;8.90;90.00;;;;;;5033360;28;19917;-82
2023/04/16 03:17:44;;;;;;;;;;;8.80;90.20;;;;;;5028450;28;19909;-85
2023/04/16 03:20:10;;;;;;;;;;;8.90;90.50;;;;;;5034412;28;19921;-84
2023/04/16 03:22:37;;;;;;;;;;;8.90;89.90;;;;;;5040923;28;20367;-84
2023/04/16 03:25:02;;;;;;;;;;;8.90;90.10;;;;;;5036550;28;20375;-84
2023/04/16 03:27:28;;;;;;;;;;;9.00;89.80;;;;;;5034211;28;19909;-84
2023/04/16 03:29:53;;;;;;;;;;;9.00;89.60;;;;;;5033698;28;20398;-84
2023/04/16 03:32:19;;;;;;;;;;;8.90;89.60;;;;;;5026794;28;20663;-84
2023/04/16 03:34:44;;;;;;;;;;;8.90;89.80;;;;;;5032921;28;20341;-84
2023/04/16 03:37:12;;;;;;;;;;;8.90;90.10;;;;;;5042362;28;19909;-82
2023/04/16 03:39:38;;;;;;;;;;;8.90;89.90;;;;;;5022478;28;19909;-82
2023/04/16 03:42:03;;;;;;;;;;;8.90;90.00;;;;;;5013721;28;19913;-84
2023/04/16 03:44:29;;;;;;;;;;;8.80;90.00;;;;;;5016257;28;20292;-83
2023/04/16 03:46:54;;;;;;;;;;;8.90;90.40;;;;;;5033365;28;19956;-82
2023/04/16 03:49:20;;;;;;;;;;;9.00;90.00;;;;;;5032636;28;19917;-83
2023/04/16 03:51:45;;;;;;;;;;;9.00;89.80;;;;;;5047018;28;20304;-84
2023/04/16 03:54:11;;;;;;;;;;;8.90;90.00;;;;;;5032179;28;19928;-84
2023/04/16 03:56:36;;;;;;;;;;;9.00;90.10;;;;;;5032283;28;20380;-82
2023/04/16 03:59:02;;;;;;;;;;;9.10;89.90;;;;;;5025121;28;20280;-84
2023/04/16 04:01:27;;;;;;;;;;;9.10;90.00;;;;;;5032593;28;20094;-84
2023/04/16 04:03:52;;;;;;;;;;;9.00;89.90;;;;;;5035285;28;19914;-82
2023/04/16 04:06:18;;;;;;;;;;;9.00;89.80;;;;;;5033327;28;19924;-83
2023/04/16 04:08:43;;;;;;;;;;;8.90;90.20;;;;;;5033069;28;19947;-84
2023/04/16 04:11:09;;;;;;;;;;;9.10;90.00;;;;;;5033550;28;20001;-83
2023/04/16 04:13:35;;;;;;;;;;;9.10;89.90;;;;;;5030990;28;19956;-89
2023/04/16 04:16:00;;;;;;;;;;;9.10;89.90;;;;;;5049181;28;19913;-84
2023/04/16 04:18:26;;;;;;;;;;;9.00;89.70;;;;;;5034437;28;19913;-85
2023/04/16 04:20:51;;;;;;;;;;;9.00;90.00;;;;;;5032488;28;20003;-84
2023/04/16 04:23:17;;;;;;;;;;;9.00;90.20;;;;;;5046713;28;19924;-85
2023/04/16 04:25:43;;;;;;;;;;;9.00;90.40;;;;;;5047618;28;20392;-84
2023/04/16 04:28:08;;;;;;;;;;;9.00;90.20;;;;;;5043221;28;19921;-86
2023/04/16 04:30:34;;;;;;;;;;;9.00;90.20;;;;;;5037090;28;19913;-83
2023/04/16 04:33:00;;;;;;;;;;;9.00;90.30;;;;;;5038714;28;19999;-85
2023/04/16 04:35:25;;;;;;;;;;;9.10;90.10;;;;;;5034905;28;20608;-85
2023/04/16 04:37:51;;;;;;;;;;;9.10;89.70;;;;;;5053884;28;19916;-85
2023/04/16 04:40:16;;;;;;;;;;;9.10;90.10;;;;;;5057945;28;19915;-85
2023/04/16 04:42:42;;;;;;;;;;;9.00;90.20;;;;;;5045645;28;19955;-84
2023/04/16 04:45:07;;;;;;;;;;;9.20;89.90;;;;;;5028327;28;19916;-84
2023/04/16 04:47:33;;;;;;;;;;;9.10;89.60;;;;;;5012052;28;19914;-83
2023/04/16 04:49:58;;;;;;;;;;;9.10;89.80;;;;;;5015792;28;19917;-83
2023/04/16 04:52:24;;;;;;;;;;;9.10;89.80;;;;;;5041692;28;20383;-84
2023/04/16 04:54:49;;;;;;;;;;;9.10;89.80;;;;;;5035377;28;20264;-83
2023/04/16 04:57:15;;;;;;;;;;;9.20;89.30;;;;;;5029760;28;19909;-83
2023/04/16 04:59:40;;;;;;;;;;;9.20;89.60;;;;;;5030721;28;19913;-84
2023/04/16 05:02:09;;;;;;;;;;;9.20;89.50;;;;;;5031612;28;19913;-83
2023/04/16 05:04:34;;;;;;;;;;;9.20;89.30;;;;;;5030481;28;20011;-85
2023/04/16 05:07:01;;;;;;;;;;;9.20;89.40;;;;;;5034909;28;20741;-84
2023/04/16 05:09:26;;;;;;;;;;;9.20;89.50;;;;;;5054982;28;19956;-84
2023/04/16 05:11:52;;;;;;;;;;;9.20;89.30;;;;;;5055797;28;19909;-84
2023/04/16 05:14:17;;;;;;;;;;;9.10;89.40;;;;;;5053361;28;19915;-84
2023/04/16 05:16:43;;;;;;;;;;;9.10;89.60;;;;;;5031942;28;20257;-83
2023/04/16 05:19:08;;;;;;;;;;;9.30;89.20;;;;;;5028988;28;20687;-83
2023/04/16 05:21:34;;;;;;;;;;;9.20;89.30;;;;;;5030140;28;19917;-83
2023/04/16 05:23:59;;;;;;;;;;;9.30;89.20;;;;;;5030050;28;19920;-82
2023/04/16 05:26:25;;;;;;;;;;;9.40;88.50;;;;;;5029781;28;19924;-83
2023/04/16 05:28:50;;;;;;;;;;;9.30;88.30;;;;;;5029199;28;19909;-84
2023/04/16 05:31:16;;;;;;;;;;;9.30;88.80;;;;;;5029894;28;19916;-82
2023/04/16 05:33:41;;;;;;;;;;;9.30;88.30;;;;;;5028403;28;19909;-84
2023/04/16 05:36:06;;;;;;;;;;;9.20;88.70;;;;;;5029504;28;19916;-83
2023/04/16 05:38:32;;;;;;;;;;;9.40;88.40;;;;;;5041409;28;20455;-83
2023/04/16 05:40:58;;;;;;;;;;;9.20;88.60;;;;;;5027479;28;19913;-84
2023/04/16 05:43:23;;;;;;;;;;;9.30;88.90;;;;;;5029345;28;19920;-84
2023/04/16 05:45:49;;;;;;;;;;;9.30;88.60;;;;;;5030377;28;19959;-84
2023/04/16 05:48:14;;;;;;;;;;;9.40;88.40;;;;;;5029888;28;20579;-85
2023/04/16 05:50:40;;;;;;;;;;;9.30;88.20;;;;;;5030399;28;19916;-85
2023/04/16 05:53:06;;;;;;;;;;;9.30;88.30;;;;;;5033547;28;19917;-83
2023/04/16 05:55:32;;;;;;;;;;;9.30;88.30;;;;;;5024331;28;20333;-84
2023/04/16 05:57:57;;;;;;;;;;;9.30;88.20;;;;;;5033292;28;19948;-83
2023/04/16 06:00:23;;;;;;;;;;;9.30;88.60;;;;;;5033202;28;20399;-83
2023/04/16 06:02:49;;;;;;;;;;;9.40;88.60;;;;;;5035238;28;19909;-84
2023/04/16 06:05:14;;;;;;;;;;;9.40;87.90;;;;;;5033807;28;20473;-83
2023/04/16 06:07:40;;;;;;;;;;;9.50;88.30;;;;;;5035030;28;20007;-84
2023/04/16 06:10:06;;;;;;;;;;;9.40;88.10;;;;;;5030980;28;19925;-83
2023/04/16 06:12:31;;;;;;;;;;;9.40;87.80;;;;;;5038109;28;19913;-84
2023/04/16 06:14:57;;;;;;;;;;;9.30;88.10;;;;;;5033937;28;19909;-83
2023/04/16 06:17:22;;;;;;;;;;;9.40;88.10;;;;;;5033452;28;19917;-84
2023/04/16 06:19:48;;;;;;;;;;;9.40;88.20;;;;;;5033040;28;19909;-84
2023/04/16 06:22:13;;;;;;;;;;;9.40;87.60;;;;;;5033534;28;19909;-83
2023/04/16 06:24:39;;;;;;;;;;;9.50;87.30;;;;;;5031837;28;19920;-84
2023/04/16 06:27:04;;;;;;;;;;;9.50;87.70;;;;;;5026468;28;20388;-84
2023/04/16 06:29:30;;;;;;;;;;;9.50;87.40;;;;;;5033435;28;19920;-84
2023/04/16 06:31:55;;;;;;;;;;;9.50;87.90;;;;;;5037039;28;19919;-82
2023/04/16 06:34:21;;;;;;;;;;;9.60;87.30;;;;;;5033700;28;19964;-85
2023/04/16 06:36:46;;;;;;;;;;;9.60;87.30;;;;;;5034968;28;19909;-84
2023/04/16 06:39:12;;;;;;;;;;;9.70;87.00;;;;;;5034541;28;19916;-82
2023/04/16 06:41:37;;;;;;;;;;;9.70;87.10;;;;;;5020945;28;19936;-84
2023/04/16 06:44:02;;;;;;;;;;;9.60;87.20;;;;;;5030148;28;19917;-83
2023/04/16 06:46:28;;;;;;;;;;;9.70;87.40;;;;;;5034078;28;19916;-84
2023/04/16 06:48:53;;;;;;;;;;;9.80;86.50;;;;;;5034887;28;20004;-83
2023/04/16 06:51:19;;;;;;;;;;;9.70;86.40;;;;;;5035605;28;19917;-84
2023/04/16 06:53:44;;;;;;;;;;;9.80;86.60;;;;;;5034254;28;19917;-82
2023/04/16 06:56:10;;;;;;;;;;;9.80;86.50;;;;;;5034355;28;19932;-82
2023/04/16 06:58:35;;;;;;;;;;;9.90;86.20;;;;;;5033356;28;19909;-84
2023/04/16 07:01:01;;;;;;;;;;;9.90;86.10;;;;;;5043430;28;20011;-84
2023/04/16 07:03:27;;;;;;;;;;;9.90;86.40;;;;;;5035278;28;19920;-82
2023/04/16 07:05:52;;;;;;;;;;;9.90;86.30;;;;;;5026746;28;19916;-85
2023/04/16 07:08:17;;;;;;;;;;;10.00;85.60;;;;;;5037300;28;20592;-85
2023/04/16 07:10:43;;;;;;;;;;;10.20;84.90;;;;;;5036202;28;19919;-84
2023/04/16 07:13:09;;;;;;;;;;;10.20;84.80;;;;;;5053865;28;19913;-83
2023/04/16 07:15:34;;;;;;;;;;;10.10;84.60;;;;;;5055755;28;20038;-85
2023/04/16 07:18:00;;;;;;;;;;;10.10;84.90;;;;;;5072327;28;19915;-84
2023/04/16 07:20:25;;;;;;;;;;;10.10;84.80;;;;;;5037440;28;20357;-84
2023/04/16 07:22:51;;;;;;;;;;;10.10;85.10;;;;;;5036417;28;19955;-83
2023/04/16 07:25:16;;;;;;;;;;;10.10;85.10;;;;;;5053478;28;19916;-84
2023/04/16 07:27:42;;;;;;;;;;;10.10;84.90;;;;;;5038952;28;19909;-84
2023/04/16 07:30:08;;;;;;;;;;;10.10;84.90;;;;;;5036979;28;19909;-83
2023/04/16 07:32:33;;;;;;;;;;;10.10;84.90;;;;;;5033552;28;19920;-84
2023/04/16 07:34:59;;;;;;;;;;;10.10;85.20;;;;;;5028294;28;20008;-84
2023/04/16 07:37:25;;;;;;;;;;;10.30;84.90;;;;;;5044087;28;19909;-85
2023/04/16 07:39:51;;;;;;;;;;;10.40;84.90;;;;;;5036977;28;19959;-85
2023/04/16 07:42:16;;;;;;;;;;;10.50;84.20;;;;;;5033486;28;19909;-82
2023/04/16 07:44:42;;;;;;;;;;;10.50;84.10;;;;;;5033182;28;20428;-86
2023/04/16 07:47:08;;;;;;;;;;;10.60;83.40;;;;;;5033219;28;19932;-82
2023/04/16 07:49:33;;;;;;;;;;;10.60;82.90;;;;;;5033532;28;19913;-85
2023/04/16 07:51:59;;;;;;;;;;;10.50;83.50;;;;;;5044161;28;19920;-83
2023/04/16 07:54:24;;;;;;;;;;;10.80;83.00;;;;;;5043127;28;19917;-83
2023/04/16 07:56:50;;;;;;;;;;;10.80;83.20;;;;;;5047587;28;19920;-82
2023/04/16 07:59:16;;;;;;;;;;;10.80;83.10;;;;;;5040459;28;19920;-85
2023/04/16 08:01:41;;;;;;;;;;;10.80;82.80;;;;;;5028777;28;19909;-85
2023/04/16 08:04:07;;;;;;;;;;;10.90;82.50;;;;;;5035227;28;20288;-84
2023/04/16 08:06:32;;;;;;;;;;;10.90;82.40;;;;;;5017913;28;19913;-84
2023/04/16 08:08:58;;;;;;;;;;;10.70;81.90;;;;;;5046140;28;19964;-85
2023/04/16 08:11:23;;;;;;;;;;;10.70;82.30;;;;;;5051276;28;20003;-85
2023/04/16 08:13:49;;;;;;;;;;;10.60;82.80;;;;;;5040722;28;19921;-85
2023/04/16 08:16:14;;;;;;;;;;;10.60;82.30;;;;;;5038425;28;19921;-84
2023/04/16 08:18:40;;;;;;;;;;;10.60;81.60;;;;;;5036988;28;19909;-85
2023/04/16 08:21:05;;;;;;;;;;;10.50;82.20;;;;;;5036980;28;19913;-85
2023/04/16 08:23:31;;;;;;;;;;;10.50;82.60;;;;;;5041192;28;20336;-82
2023/04/16 08:25:57;;;;;;;;;;;10.70;82.10;;;;;;5042476;28;19932;-86
2023/04/16 08:28:22;;;;;;;;;;;10.90;81.30;;;;;;5037341;28;19913;-83
2023/04/16 08:30:48;;;;;;;;;;;11.00;80.70;;;;;;5037483;28;19956;-85
2023/04/16 08:33:13;;;;;;;;;;;10.90;81.50;;;;;;5033279;28;20376;-83
2023/04/16 08:35:39;;;;;;;;;;;10.90;81.70;;;;;;5026597;28;19913;-84
2023/04/16 08:38:06;;;;;;;;;;;10.80;81.40;;;;;;5048267;28;19952;-84
2023/04/16 08:40:33;;;;;;;;;;;10.70;81.60;;;;;;5030180;28;19914;-84
2023/04/16 08:43:00;;;;;;;;;;;10.80;81.60;;;;;;5031020;28;20296;-84
2023/04/16 08:45:26;;;;;;;;;;;10.70;82.30;;;;;;5029586;28;19912;-84
2023/04/16 08:47:52;;;;;;;;;;;10.90;81.30;;;;;;5037897;28;19963;-84
2023/04/16 08:50:25;;;;;;;;;;;10.80;81.20;;;;;;5030577;28;19917;-84
2023/04/16 08:52:52;;;;;;;;;;;10.80;81.50;;;;;;5046355;22;21001;-86
2023/04/16 08:55:18;;;;;;;;;;;10.90;81.30;;;;;;5037744;28;19917;-85
2023/04/16 08:58:12;;;;;;;;;;;11.00;81.50;;;;;;5046158;28;21243;-85
2023/04/16 09:00:38;;;;;;;;;;;11.10;80.20;;;;;;5037928;28;19909;-85
2023/04/16 09:03:04;;;;;;;;;;;11.10;80.20;;;;;;5066342;28;20366;-86
2023/04/16 09:05:29;;;;;;;;;;;11.10;80.50;;;;;;5047221;28;19955;-85
2023/04/16 09:07:55;;;;;;;;;;;11.00;80.40;;;;;;5021480;28;19913;-85
2023/04/16 09:10:20;;;;;;;;;;;11.20;80.00;;;;;;5034500;28;19916;-86
2023/04/16 09:12:46;;;;;;;;;;;11.30;79.00;;;;;;5030722;28;19917;-85
2023/04/16 09:15:12;;;;;;;;;;;11.10;80.30;;;;;;5038355;28;20004;-86
2023/04/16 09:17:38;;;;;;;;;;;11.20;80.70;;;;;;5014639;28;19948;-85
2023/04/16 09:20:04;;;;;;;;;;;11.20;80.10;;;;;;5044863;28;19909;-85
2023/04/16 09:22:30;;;;;;;;;;;11.20;79.10;;;;;;5042316;28;19953;-85
2023/04/16 09:24:56;;;;;;;;;;;11.00;79.90;;;;;;5025819;28;19968;-85
2023/04/16 09:27:21;;;;;;;;;;;11.00;80.20;;;;;;5036216;28;19917;-84
2023/04/16 09:29:48;;;;;;;;;;;11.00;79.60;;;;;;5036285;28;19913;-85
2023/04/16 09:32:14;;;;;;;;;;;10.90;80.40;;;;;;5033295;28;19921;-85
2023/04/16 09:35:08;;;;;;;;;;;10.70;81.50;;;;;;5023807;28;19913;-86
2023/04/16 09:37:34;;;;;;;;;;;10.90;82.10;;;;;;5023441;28;20063;-85
2023/04/16 09:40:00;;;;;;;;;;;11.10;81.00;;;;;;5037408;28;19977;-85
2023/04/16 09:42:27;;;;;;;;;;;11.30;79.10;;;;;;5036929;28;19913;-85
2023/04/16 09:44:53;;;;;;;;;;;11.30;79.20;;;;;;5021017;28;19921;-86
2023/04/16 09:47:19;;;;;;;;;;;11.40;79.10;;;;;;5034329;28;20453;-85
2023/04/16 09:49:45;;;;;;;;;;;11.40;79.50;;;;;;5027602;28;20432;-85
2023/04/16 09:52:15;;;;;;;;;;;11.40;79.00;;;;;;5036202;28;19909;-85
2023/04/16 09:54:50;;;;;;;;;;;11.30;79.00;;;;;;5032844;28;19917;-85
2023/04/16 09:57:20;;;;;;;;;;;11.30;79.50;;;;;;5027130;28;19925;-85
2023/04/16 09:59:45;;;;;;;;;;;11.40;78.70;;;;;;5034053;28;19913;-86
2023/04/16 10:02:11;;;;;;;;;;;11.20;79.40;;;;;;5034011;28;19913;-86
2023/04/16 10:04:50;;;;;;;;;;;11.30;79.50;;;;;;5035058;28;20007;-85
2023/04/16 10:07:15;;;;;;;;;;;11.10;80.20;;;;;;5034483;28;19916;-85
2023/04/16 10:09:41;;;;;;;;;;;11.20;80.60;;;;;;5020381;28;19917;-85
2023/04/16 10:12:07;;;;;;;;;;;11.40;79.50;;;;;;5045833;28;19910;-84
2023/04/16 10:14:32;;;;;;;;;;;11.50;79.00;;;;;;5052882;28;19913;-84
2023/04/16 10:16:58;;;;;;;;;;;11.60;79.30;;;;;;5036610;28;19936;-86
2023/04/16 10:19:24;;;;;;;;;;;11.50;78.90;;;;;;5036429;28;20287;-85
2023/04/16 10:21:50;;;;;;;;;;;11.50;78.30;;;;;;5038498;28;20352;-85
2023/04/16 10:24:16;;;;;;;;;;;11.60;78.80;;;;;;5036706;28;19968;-85
2023/04/16 10:26:42;;;;;;;;;;;12.00;77.30;;;;;;5033895;28;20382;-86
2023/04/16 10:29:08;;;;;;;;;;;12.20;77.00;;;;;;5018534;28;20379;-85
2023/04/16 10:31:35;;;;;;;;;;;12.20;77.10;;;;;;5035384;28;20023;-86
2023/04/16 10:34:02;;;;;;;;;;;12.30;76.30;;;;;;5025820;28;20579;-86
2023/04/16 10:36:27;;;;;;;;;;;12.20;76.20;;;;;;5021020;28;19928;-86
2023/04/16 10:38:56;;;;;;;;;;;12.10;76.60;;;;;;5020097;28;19960;-86
2023/04/16 10:41:22;;;;;;;;;;;11.90;76.30;;;;;;5021505;28;19918;-87
2023/04/16 10:43:48;;;;;;;;;;;11.80;77.20;;;;;;5023857;28;19987;-86
2023/04/16 10:46:17;;;;;;;;;;;11.80;77.70;;;;;;5024860;28;20426;-87
2023/04/16 10:48:42;;;;;;;;;;;12.00;77.20;;;;;;5025699;28;19917;-87
2023/04/16 10:51:21;;;;;;;;;;;12.20;76.40;;;;;;5020760;28;19921;-86
2023/04/16 10:53:47;;;;;;;;;;;12.30;75.80;;;;;;5030579;28;19929;-86
2023/04/16 10:56:12;;;;;;;;;;;12.50;75.00;;;;;;5033531;28;20283;-86
2023/04/16 10:58:41;;;;;;;;;;;12.40;74.60;;;;;;5026751;28;19968;-87
2023/04/16 11:01:11;;;;;;;;;;;12.60;74.00;;;;;;5029089;28;19921;-89
2023/04/16 11:03:40;;;;;;;;;;;12.70;72.80;;;;;;5023627;28;19921;-86
2023/04/16 11:06:09;;;;;;;;;;;12.70;73.20;;;;;;5029908;28;19921;-86
2023/04/16 11:08:34;;;;;;;;;;;12.70;73.40;;;;;;5031147;28;19917;-86
2023/04/16 11:11:00;;;;;;;;;;;12.80;73.80;;;;;;5027427;28;19956;-86
2023/04/16 11:13:26;;;;;;;;;;;12.80;73.70;;;;;;5030871;28;19941;-87
2023/04/16 11:15:54;;;;;;;;;;;13.10;71.80;;;;;;5023827;28;19923;-87
2023/04/16 11:18:20;;;;;;;;;;;13.10;72.00;;;;;;5034422;28;19913;-87
2023/04/16 11:20:45;;;;;;;;;;;13.10;72.10;;;;;;5033427;28;20012;-88
2023/04/16 11:23:12;;;;;;;;;;;13.10;71.30;;;;;;5033926;28;19939;-87
2023/04/16 11:25:37;;;;;;;;;;;13.10;71.50;;;;;;5027181;28;19913;-86
2023/04/16 11:28:03;;;;;;;;;;;13.30;70.50;;;;;;5033852;28;19982;-87
2023/04/16 11:30:30;;;;;;;;;;;13.30;69.90;;;;;;5021694;28;19913;-87
2023/04/16 11:32:55;;;;;;;;;;;13.60;69.90;;;;;;5021185;28;19921;-87
2023/04/16 11:35:21;;;;;;;;;;;13.60;69.20;;;;;;5023686;28;19921;-88
2023/04/16 11:37:49;;;;;;;;;;;13.80;69.80;;;;;;5021670;28;19924;-87
2023/04/16 11:40:15;;;;;;;;;;;13.90;68.80;;;;;;5020665;28;19914;-86
2023/04/16 11:42:40;;;;;;;;;;;13.80;69.20;;;;;;5022749;28;20379;-87
2023/04/16 11:45:10;;;;;;;;;;;13.80;68.90;;;;;;5022359;28;19917;-86
2023/04/16 11:47:43;;;;;;;;;;;13.60;69.00;;;;;;5031802;28;19932;-87
2023/04/16 11:50:19;;;;;;;;;;;13.20;69.40;;;;;;5034139;28;19959;-87
2023/04/16 11:52:48;;;;;;;;;;;13.20;70.30;;;;;;5031187;28;19927;-87
2023/04/16 11:55:14;;;;;;;;;;;13.30;70.50;;;;;;5033610;28;19940;-87
2023/04/16 11:57:39;;;;;;;;;;;13.30;69.50;;;;;;5033074;28;19917;-87
2023/04/16 12:00:12;;;;;;;;;;;13.30;69.40;;;;;;5027094;28;19928;-86
2023/04/16 12:02:48;;;;;;;;;;;13.30;69.80;;;;;;5022580;28;20545;-87
2023/04/16 12:05:33;;;;;;;;;;;13.50;68.90;;;;;;5023417;28;20381;-86
2023/04/16 12:08:09;;;;;;;;;;;13.10;69.50;;;;;;5020925;28;20012;-87
2023/04/16 12:10:36;;;;;;;;;;;12.90;70.70;;;;;;5025514;28;19944;-87
2023/04/16 12:13:11;;;;;;;;;;;13.10;71.50;;;;;;5024047;28;19913;-88
2023/04/16 12:15:44;;;;;;;;;;;13.10;71.30;;;;;;5022231;28;19959;-88
2023/04/16 12:18:09;;;;;;;;;;;13.00;71.00;;;;;;5026291;28;19913;-87
2023/04/16 12:20:40;;;;;;;;;;;13.00;72.40;;;;;;5044395;28;19897;-88
2023/04/16 12:23:07;;;;;;;;;;;12.90;72.10;;;;;;5022908;28;20282;-88
2023/04/16 12:25:32;;;;;;;;;;;13.00;71.90;;;;;;5022751;28;19910;-88
2023/04/16 12:27:58;;;;;;;;;;;13.20;70.80;;;;;;5024468;28;19920;-87
2023/04/16 12:30:28;;;;;;;;;;;13.50;70.60;;;;;;5022922;28;19914;-86
2023/04/16 12:33:13;;;;;;;;;;;13.60;69.50;;;;;;5021383;28;19973;-87
2023/04/16 12:35:40;;;;;;;;;;;13.90;68.70;;;;;;5019867;28;20294;-87
2023/04/16 12:38:06;;;;;;;;;;;13.80;69.40;;;;;;5021247;28;19913;-88
2023/04/16 12:40:32;;;;;;;;;;;13.80;68.40;;;;;;5026399;28;20289;-87
2023/04/16 12:42:57;;;;;;;;;;;13.60;69.20;;;;;;5033615;28;19916;-87
2023/04/16 12:45:23;;;;;;;;;;;13.60;69.60;;;;;;5032199;28;19909;-87
2023/04/16 12:47:49;;;;;;;;;;;13.60;68.50;;;;;;5036596;28;19951;-86
2023/04/16 12:50:14;;;;;;;;;;;13.60;68.70;;;;;;5035201;28;20293;-87
2023/04/16 12:52:40;;;;;;;;;;;13.40;69.80;;;;;;5023304;28;20287;-87
2023/04/16 12:55:08;;;;;;;;;;;13.40;70.30;;;;;;5024841;28;19920;-93
2023/04/16 12:57:33;;;;;;;;;;;13.60;70.40;;;;;;5022771;28;19913;-89
2023/04/16 12:59:59;;;;;;;;;;;13.70;69.40;;;;;;5026290;28;19928;-88
2023/04/16 13:02:24;;;;;;;;;;;13.70;69.00;;;;;;5032008;28;19956;-88
2023/04/16 13:04:50;;;;;;;;;;;13.60;69.20;;;;;;5030201;28;19917;-88
2023/04/16 13:07:16;;;;;;;;;;;13.80;70.80;;;;;;5029036;28;19913;-87
2023/04/16 13:09:42;;;;;;;;;;;14.10;68.00;;;;;;5029918;28;19928;-88
2023/04/16 13:12:07;;;;;;;;;;;13.60;68.90;;;;;;5030906;28;20441;-89
2023/04/16 13:14:33;;;;;;;;;;;13.60;70.00;;;;;;5032377;28;19921;-89
2023/04/16 13:16:58;;;;;;;;;;;13.60;69.90;;;;;;5024642;28;19925;-89
2023/04/16 13:19:35;;;;;;;;;;;13.60;69.20;;;;;;5022655;28;19917;-90
2023/04/16 13:22:01;;;;;;;;;;;13.80;69.10;;;;;;5026644;28;19947;-90
2023/04/16 13:24:26;;;;;;;;;;;13.90;68.30;;;;;;5024336;28;19947;-90
2023/04/16 13:26:52;;;;;;;;;;;13.60;69.00;;;;;;5030631;28;19981;-90
2023/04/16 13:29:18;;;;;;;;;;;13.30;69.90;;;;;;5027571;28;20394;-90
2023/04/16 13:31:47;;;;;;;;;;;13.30;70.40;;;;;;5026860;28;20004;-90
2023/04/16 13:34:13;;;;;;;;;;;13.30;71.10;;;;;;5042829;28;19920;-88
2023/04/16 13:36:39;;;;;;;;;;;13.50;70.50;;;;;;5022862;28;19913;-90
2023/04/16 13:39:10;;;;;;;;;;;13.60;71.10;;;;;;5024038;28;19967;-91
2023/04/16 13:41:36;;;;;;;;;;;13.70;68.90;;;;;;5042394;28;19925;-88
2023/04/16 13:44:01;;;;;;;;;;;13.70;68.70;;;;;;5048304;28;19933;-88
2023/04/16 13:46:27;;;;;;;;;;;13.60;69.90;;;;;;5034501;28;19918;-90
2023/04/16 13:48:53;;;;;;;;;;;13.30;70.20;;;;;;5021629;28;19914;-91
2023/04/16 13:51:18;;;;;;;;;;;13.20;70.80;;;;;;5018768;28;19920;-91
2023/04/16 13:53:44;;;;;;;;;;;13.10;71.40;;;;;;5017739;28;20007;-90
2023/04/16 13:56:10;;;;;;;;;;;13.10;71.20;;;;;;5021606;28;19913;-90
2023/04/16 13:58:40;;;;;;;;;;;13.40;71.10;;;;;;5020606;28;20020;-88
2023/04/16 14:01:06;;;;;;;;;;;13.60;69.60;;;;;;5026660;28;19921;-91
2023/04/16 14:03:34;;;;;;;;;;;13.80;68.30;;;;;;5020846;28;19921;-90
2023/04/16 14:06:00;;;;;;;;;;;14.00;68.90;;;;;;5023938;28;19924;-89
2023/04/16 14:08:29;;;;;;;;;;;14.20;67.70;;;;;;5028855;28;19913;-89
2023/04/16 14:10:55;;;;;;;;;;;14.20;67.60;;;;;;5023369;28;19920;-90
2023/04/16 14:13:20;;;;;;;;;;;14.50;66.50;;;;;;5019533;28;20439;-89
2023/04/16 14:15:46;;;;;;;;;;;14.30;66.40;;;;;;5030768;28;19917;-90
2023/04/16 14:18:11;;;;;;;;;;;14.20;67.70;;;;;;5027707;28;20291;-90